createdAt,value
2016-05-22T00:00:10.154Z,1003.94
2016-05-22T00:01:10.157Z,1003.91
2016-05-22T00:02:10.159Z,1003.82
2016-05-22T00:03:10.162Z,1003.86
2016-05-22T00:04:10.165Z,1003.85
2016-05-22T00:05:10.182Z,1003.83
2016-05-22T00:06:10.185Z,1003.83
2016-05-22T00:07:10.188Z,1003.78
2016-05-22T00:08:10.190Z,1003.77
2016-05-22T00:09:10.210Z,1003.73
2016-05-22T00:10:10.212Z,1003.73
2016-05-22T00:11:10.230Z,1003.71
2016-05-22T00:12:10.234Z,1003.7
2016-05-22T00:13:10.236Z,1003.7
2016-05-22T00:14:10.238Z,1003.68
2016-05-22T00:15:10.242Z,1003.65
2016-05-22T00:16:10.244Z,1003.66
2016-05-22T00:17:10.262Z,1003.65
2016-05-22T00:18:10.264Z,1003.67
2016-05-22T00:19:10.267Z,1003.65
2016-05-22T00:20:10.270Z,1003.66
2016-05-22T00:21:10.272Z,1003.69
2016-05-22T00:22:10.291Z,1003.65
2016-05-22T00:23:10.294Z,1003.64
2016-05-22T00:24:10.296Z,1003.64
2016-05-22T00:25:10.315Z,1003.65
2016-05-22T00:26:10.317Z,1003.6
2016-05-22T00:27:10.319Z,1003.6
2016-05-22T00:28:10.323Z,1003.6
2016-05-22T00:29:10.325Z,1003.56
2016-05-22T00:30:10.344Z,1003.55
2016-05-22T00:31:10.346Z,1003.52
2016-05-22T00:32:10.349Z,1003.51
2016-05-22T00:33:10.352Z,1003.44
2016-05-22T00:34:10.370Z,1003.41
2016-05-22T00:35:10.373Z,1003.35
2016-05-22T00:36:10.376Z,1003.39
2016-05-22T00:37:10.379Z,1003.38
2016-05-22T00:38:10.381Z,1003.38
2016-05-22T00:39:10.399Z,1003.38
2016-05-22T00:40:10.402Z,1003.39
2016-05-22T00:41:10.404Z,1003.37
2016-05-22T00:42:10.845Z,1003.35
2016-05-22T00:43:10.426Z,1003.3
2016-05-22T00:44:10.428Z,1003.31
2016-05-22T00:45:10.432Z,1003.27
2016-05-22T00:46:10.450Z,1003.29
2016-05-22T00:47:10.452Z,1003.26
2016-05-22T00:48:10.456Z,1003.21
2016-05-22T00:49:10.458Z,1003.26
2016-05-22T00:50:10.460Z,1003.26
2016-05-22T00:51:10.478Z,1003.28
2016-05-22T00:52:10.481Z,1003.29
2016-05-22T00:53:10.484Z,1003.22
2016-05-22T00:54:10.486Z,1003.25
2016-05-22T00:55:10.505Z,1003.21
2016-05-22T00:56:10.508Z,1003.12
2016-05-22T00:57:10.510Z,1003.18
2016-05-22T00:58:10.638Z,1003.13
2016-05-22T00:59:10.531Z,1003.16
2016-05-22T01:00:10.534Z,1003.11
2016-05-22T01:01:10.536Z,1003.14
2016-05-22T01:02:10.539Z,1003.14
2016-05-22T01:03:10.557Z,1003.13
2016-05-22T01:04:10.560Z,1003.15
2016-05-22T01:05:10.563Z,1003.11
2016-05-22T01:06:10.565Z,1003.08
2016-05-22T01:07:10.584Z,1003.07
2016-05-22T01:08:10.587Z,1003.07
2016-05-22T01:09:10.590Z,1003.08
2016-05-22T01:10:10.592Z,1003.1
2016-05-22T01:11:10.610Z,1003.12
2016-05-22T01:12:10.613Z,1003.1
2016-05-22T01:13:10.615Z,1003.11
2016-05-22T01:14:10.618Z,1003.09
2016-05-22T01:15:10.621Z,1003.12
2016-05-22T01:16:10.639Z,1003.08
2016-05-22T01:17:10.643Z,1003.11
2016-05-22T01:18:10.645Z,1003.06
2016-05-22T01:19:10.647Z,1003.11
2016-05-22T01:20:10.666Z,1003.08
2016-05-22T01:21:10.669Z,1003.11
2016-05-22T01:22:10.672Z,1003.11
2016-05-22T01:23:10.675Z,1003.09
2016-05-22T01:24:10.692Z,1003.06
2016-05-22T01:25:10.695Z,1003.05
2016-05-22T01:26:10.697Z,1003.03
2016-05-22T01:27:10.716Z,1003.07
2016-05-22T01:28:10.719Z,1003.05
2016-05-22T01:29:10.721Z,1003.06
2016-05-22T01:30:10.724Z,1003.05
2016-05-22T01:31:10.726Z,1003.07
2016-05-22T01:32:10.729Z,1003.05
2016-05-22T01:33:10.747Z,1003.06
2016-05-22T01:34:10.750Z,1003.05
2016-05-22T01:35:10.752Z,1003.04
2016-05-22T01:36:10.771Z,1003.04
2016-05-22T01:37:10.774Z,1003.01
2016-05-22T01:38:10.777Z,1002.98
2016-05-22T01:39:10.779Z,1003.01
2016-05-22T01:40:10.798Z,1002.99
2016-05-22T01:41:10.800Z,1003.01
2016-05-22T01:42:10.804Z,1002.97
2016-05-22T01:43:10.806Z,1003
2016-05-22T01:44:10.809Z,1002.94
2016-05-22T01:45:10.826Z,1002.89
2016-05-22T01:46:10.829Z,1002.85
2016-05-22T01:47:10.832Z,1002.8
2016-05-22T01:48:10.835Z,1002.8
2016-05-22T01:49:10.853Z,1002.83
2016-05-22T01:50:10.856Z,1002.78
2016-05-22T01:51:10.859Z,1002.82
2016-05-22T01:52:10.861Z,1002.8
2016-05-22T01:53:10.926Z,1002.77
2016-05-22T01:54:10.882Z,1002.79
2016-05-22T01:55:10.886Z,1002.8
2016-05-22T01:56:10.888Z,1002.79
2016-05-22T01:57:10.906Z,1002.77
2016-05-22T01:58:11.143Z,1002.74
2016-05-22T01:59:10.911Z,1002.78
2016-05-22T02:00:10.914Z,1002.83
2016-05-22T02:01:10.917Z,1002.75
2016-05-22T02:02:10.935Z,1002.72
2016-05-22T02:03:10.938Z,1002.7
2016-05-22T02:04:10.940Z,1002.7
2016-05-22T02:05:10.944Z,1002.62
2016-05-22T02:06:10.961Z,1002.61
2016-05-22T02:07:10.963Z,1002.66
2016-05-22T02:08:10.967Z,1002.6
2016-05-22T02:09:10.969Z,1002.57
2016-05-22T02:10:10.988Z,1002.48
2016-05-22T02:11:10.990Z,1002.52
2016-05-22T02:12:10.993Z,1002.43
2016-05-22T02:13:10.996Z,1002.39
2016-05-22T02:14:11.015Z,1002.37
2016-05-22T02:15:11.017Z,1002.39
2016-05-22T02:16:11.020Z,1002.35
2016-05-22T02:17:11.023Z,1002.36
2016-05-22T02:18:11.025Z,1002.34
2016-05-22T02:19:11.043Z,1002.37
2016-05-22T02:20:11.062Z,1002.35
2016-05-22T02:21:11.049Z,1002.34
2016-05-22T02:22:11.051Z,1002.32
2016-05-22T02:23:11.070Z,1002.34
2016-05-22T02:24:11.072Z,1002.33
2016-05-22T02:25:11.075Z,1002.37
2016-05-22T02:26:11.078Z,1002.33
2016-05-22T02:27:11.097Z,1002.33
2016-05-22T02:28:11.099Z,1002.31
2016-05-22T02:29:11.102Z,1002.34
2016-05-22T02:30:11.105Z,1002.32
2016-05-22T02:31:11.122Z,1002.29
2016-05-22T02:32:11.125Z,1002.33
2016-05-22T02:33:11.128Z,1002.27
2016-05-22T02:34:11.147Z,1002.3
2016-05-22T02:35:11.133Z,1002.27
2016-05-22T02:36:11.152Z,1002.26
2016-05-22T02:37:11.154Z,1002.31
2016-05-22T02:38:11.157Z,1002.28
2016-05-22T02:39:11.175Z,1002.24
2016-05-22T02:40:11.178Z,1002.24
2016-05-22T02:41:11.180Z,1002.25
2016-05-22T02:42:11.199Z,1002.23
2016-05-22T02:43:11.202Z,1002.21
2016-05-22T02:44:11.204Z,1002.25
2016-05-22T02:45:11.206Z,1002.16
2016-05-22T02:46:11.210Z,1002.18
2016-05-22T02:47:11.212Z,1002.17
2016-05-22T02:48:11.231Z,1002.12
2016-05-22T02:49:11.234Z,1002.12
2016-05-22T02:50:11.236Z,1002.13
2016-05-22T02:51:11.254Z,1002.14
2016-05-22T02:52:11.257Z,1002.09
2016-05-22T02:53:11.259Z,1002.13
2016-05-22T02:54:11.262Z,1002.1
2016-05-22T02:55:11.265Z,1002.08
2016-05-22T02:56:11.283Z,1002.07
2016-05-22T02:57:11.583Z,1002.07
2016-05-22T02:58:11.289Z,1002.03
2016-05-22T02:59:11.291Z,1002.03
2016-05-22T03:00:11.310Z,1002.02
2016-05-22T03:01:11.313Z,1001.99
2016-05-22T03:03:11.318Z,1001.94
2016-05-22T03:04:11.335Z,1001.92
2016-05-22T03:05:11.339Z,1001.87
2016-05-22T03:06:11.341Z,1001.89
2016-05-22T03:07:11.344Z,1001.86
2016-05-22T03:08:11.363Z,1001.82
2016-05-22T03:09:11.366Z,1001.79
2016-05-22T03:10:11.368Z,1001.75
2016-05-22T03:11:11.370Z,1001.71
2016-05-22T03:12:11.388Z,1001.68
2016-05-22T03:13:11.391Z,1001.7
2016-05-22T03:14:11.394Z,1001.75
2016-05-22T03:15:11.412Z,1001.71
2016-05-22T03:16:11.399Z,1001.68
2016-05-22T03:17:11.418Z,1001.69
2016-05-22T03:18:11.420Z,1001.71
2016-05-22T03:19:11.424Z,1001.66
2016-05-22T03:20:11.426Z,1001.64
2016-05-22T03:21:11.445Z,1001.64
2016-05-22T03:22:11.447Z,1001.64
2016-05-22T03:23:11.450Z,1001.62
2016-05-22T03:24:11.453Z,1001.6
2016-05-22T03:25:11.470Z,1001.58
2016-05-22T03:26:11.473Z,1001.54
2016-05-22T03:27:11.476Z,1001.55
2016-05-22T03:28:11.869Z,1001.56
2016-05-22T03:29:11.481Z,1001.49
2016-05-22T03:30:11.516Z,1001.52
2016-05-22T03:31:11.551Z,1001.43
2016-05-22T03:32:11.585Z,1001.42
2016-05-22T03:33:11.620Z,1001.39
2016-05-22T03:34:11.670Z,1001.35
2016-05-22T03:35:11.693Z,1001.32
2016-05-22T03:36:11.707Z,1001.33
2016-05-22T03:37:11.720Z,1001.31
2016-05-22T03:38:11.750Z,1001.27
2016-05-22T03:39:11.763Z,1001.22
2016-05-22T03:40:11.774Z,1001.23
2016-05-22T03:41:11.780Z,1001.23
2016-05-22T03:42:11.803Z,1001.19
2016-05-22T03:43:11.809Z,1001.22
2016-05-22T03:44:11.817Z,1001.2
2016-05-22T03:45:11.822Z,1001.18
2016-05-22T03:46:11.827Z,1001.18
2016-05-22T03:47:11.846Z,1001.14
2016-05-22T03:48:11.850Z,1001.14
2016-05-22T03:49:11.855Z,1001.18
2016-05-22T03:50:11.857Z,1001.16
2016-05-22T03:51:11.877Z,1001.11
2016-05-22T03:52:11.880Z,1001.1
2016-05-22T03:53:11.883Z,1001.1
2016-05-22T03:54:11.886Z,1001.03
2016-05-22T03:55:11.889Z,1001.02
2016-05-22T03:56:11.908Z,1000.96
2016-05-22T03:57:12.097Z,1000.94
2016-05-22T03:58:12.303Z,1000.93
2016-05-22T03:59:11.930Z,1000.95
2016-05-22T04:00:11.933Z,1000.92
2016-05-22T04:01:11.936Z,1000.86
2016-05-22T04:02:14.799Z,1000.88
2016-05-22T04:03:11.941Z,1000.88
2016-05-22T04:04:11.960Z,1000.83
2016-05-22T04:05:11.962Z,1000.79
2016-05-22T04:06:11.965Z,1000.75
2016-05-22T04:07:11.969Z,1000.76
2016-05-22T04:08:11.987Z,1000.7
2016-05-22T04:09:11.989Z,1000.7
2016-05-22T04:10:11.992Z,1000.7
2016-05-22T04:11:11.995Z,1000.68
2016-05-22T04:12:12.013Z,1000.69
2016-05-22T04:13:12.438Z,1000.62
2016-05-22T04:14:12.018Z,1000.62
2016-05-22T04:15:12.020Z,1000.67
2016-05-22T04:16:12.023Z,1000.65
2016-05-22T04:17:12.042Z,1000.66
2016-05-22T04:18:12.045Z,1000.59
2016-05-22T04:19:12.048Z,1000.57
2016-05-22T04:20:12.051Z,1000.64
2016-05-22T04:21:12.067Z,1000.64
2016-05-22T04:22:12.071Z,1000.57
2016-05-22T04:23:12.073Z,1000.58
2016-05-22T04:24:12.076Z,1000.57
2016-05-22T04:25:12.095Z,1000.47
2016-05-22T04:26:12.098Z,1000.54
2016-05-22T04:27:12.100Z,1000.49
2016-05-22T04:28:12.681Z,1000.52
2016-05-22T04:29:12.122Z,1000.51
2016-05-22T04:30:12.124Z,1000.53
2016-05-22T04:31:12.127Z,1000.5
2016-05-22T04:32:12.129Z,1000.53
2016-05-22T04:33:12.132Z,1000.5
2016-05-22T04:34:12.150Z,1000.5
2016-05-22T04:35:12.168Z,1000.49
2016-05-22T04:36:12.155Z,1000.55
2016-05-22T04:37:12.174Z,1000.57
2016-05-22T04:38:12.177Z,1000.56
2016-05-22T04:39:12.179Z,1000.6
2016-05-22T04:40:12.182Z,1000.62
2016-05-22T04:41:12.200Z,1000.59
2016-05-22T04:42:12.203Z,1000.67
2016-05-22T04:43:12.206Z,1000.74
2016-05-22T04:44:12.209Z,1000.75
2016-05-22T04:45:12.211Z,1000.79
2016-05-22T04:46:12.229Z,1000.78
2016-05-22T04:47:12.232Z,1000.8
2016-05-22T04:48:12.234Z,1000.81
2016-05-22T04:49:12.237Z,1000.79
2016-05-22T04:50:12.256Z,1000.78
2016-05-22T04:51:12.259Z,1000.91
2016-05-22T04:52:12.261Z,1000.81
2016-05-22T04:53:12.264Z,1000.78
2016-05-22T04:54:12.281Z,1000.74
2016-05-22T04:55:12.284Z,1000.77
2016-05-22T04:56:12.287Z,1000.73
2016-05-22T04:57:12.289Z,1000.68
2016-05-22T04:58:12.308Z,1000.67
2016-05-22T04:59:12.311Z,1000.67
2016-05-22T05:00:12.314Z,1000.59
2016-05-22T05:01:12.316Z,1000.61
2016-05-22T05:02:12.335Z,1000.6
2016-05-22T05:03:12.337Z,1000.56
2016-05-22T05:04:12.340Z,1000.55
2016-05-22T05:05:12.343Z,1000.56
2016-05-22T05:06:12.346Z,1000.5
2016-05-22T05:07:12.363Z,1000.47
2016-05-22T05:08:12.366Z,1000.44
2016-05-22T05:09:12.369Z,1000.42
2016-05-22T05:10:12.371Z,1000.41
2016-05-22T05:11:12.391Z,1000.38
2016-05-22T05:12:12.393Z,1000.37
2016-05-22T05:13:12.395Z,1000.39
2016-05-22T05:14:12.398Z,1000.39
2016-05-22T05:15:12.417Z,1000.35
2016-05-22T05:16:12.419Z,1000.3
2016-05-22T05:17:12.423Z,1000.27
2016-05-22T05:18:12.425Z,1000.28
2016-05-22T05:19:12.442Z,1000.24
2016-05-22T05:20:12.445Z,1000.32
2016-05-22T05:21:12.448Z,1000.44
2016-05-22T05:22:12.451Z,1000.43
2016-05-22T05:23:12.454Z,1000.41
2016-05-22T05:24:12.473Z,1000.61
2016-05-22T05:25:12.474Z,1001.04
2016-05-22T05:26:12.477Z,1000.55
2016-05-22T05:27:12.481Z,1000.59
2016-05-22T05:28:12.498Z,1000.68
2016-05-22T05:29:12.501Z,1000.52
2016-05-22T05:30:12.504Z,1000.52
2016-05-22T05:31:12.522Z,1000.48
2016-05-22T05:32:12.524Z,1000.98
2016-05-22T05:33:12.528Z,1001.21
2016-05-22T05:34:12.530Z,1001.14
2016-05-22T05:35:12.549Z,1001.08
2016-05-22T05:36:12.552Z,1001.16
2016-05-22T05:37:12.555Z,1001.26
2016-05-22T05:38:12.572Z,1001.4
2016-05-22T05:39:12.575Z,1001.51
2016-05-22T05:40:12.577Z,1001.42
2016-05-22T05:41:12.596Z,1001.5
2016-05-22T05:42:12.599Z,1001.62
2016-05-22T05:43:12.602Z,1001.61
2016-05-22T05:44:12.620Z,1001.66
2016-05-22T05:45:12.622Z,1001.35
2016-05-22T05:46:12.640Z,1001.62
2016-05-22T05:47:12.643Z,1001.59
2016-05-22T05:48:12.645Z,1001.32
2016-05-22T05:49:12.649Z,1001.43
2016-05-22T05:50:12.667Z,1001.47
2016-05-22T05:51:12.685Z,1001.27
2016-05-22T05:52:12.687Z,1001.29
2016-05-22T05:53:12.691Z,1001.22
2016-05-22T05:54:12.693Z,1001.48
2016-05-22T05:55:12.712Z,1001.63
2016-05-22T05:56:12.714Z,1001.44
2016-05-22T05:57:12.733Z,1001.49
2016-05-22T05:58:12.736Z,1001.2
2016-05-22T05:59:12.753Z,1000.94
2016-05-22T06:00:12.756Z,1000.9
2016-05-22T06:01:12.759Z,1000.77
2016-05-22T06:03:12.796Z,1000.69
2016-05-22T06:04:12.782Z,1000.61
2016-05-22T06:05:12.802Z,1000.48
2016-05-22T06:06:12.819Z,1000.6
2016-05-22T06:07:12.807Z,1000.49
2016-05-22T06:08:12.825Z,1000.53
2016-05-22T06:09:12.827Z,1000.48
2016-05-22T06:10:12.830Z,1000.51
2016-05-22T06:11:12.849Z,1000.47
2016-05-22T06:12:12.851Z,1000.41
2016-05-22T06:13:12.869Z,1000.48
2016-05-22T06:14:12.872Z,1000.51
2016-05-22T06:15:12.875Z,1000.53
2016-05-22T06:16:12.893Z,1000.46
2016-05-22T06:17:12.896Z,1000.47
2016-05-22T06:18:12.899Z,1000.55
2016-05-22T06:19:12.902Z,1000.53
2016-05-22T06:20:12.920Z,1000.49
2016-05-22T06:21:12.922Z,1000.42
2016-05-22T06:22:12.925Z,1000.55
2016-05-22T06:23:12.943Z,1000.63
2016-05-22T06:24:12.946Z,1000.74
2016-05-22T06:25:12.949Z,1000.56
2016-05-22T06:26:12.967Z,1000.46
2016-05-22T06:27:12.969Z,1000.84
2016-05-22T06:28:13.442Z,1001.03
2016-05-22T06:29:12.991Z,1001.13
2016-05-22T06:30:12.994Z,1001.24
2016-05-22T06:31:13.012Z,1001.48
2016-05-22T06:32:13.015Z,1001.53
2016-05-22T06:33:13.016Z,1001.52
2016-05-22T06:34:13.035Z,1001.55
2016-05-22T06:35:13.038Z,1001.4
2016-05-22T06:36:13.041Z,1000.79
2016-05-22T06:37:13.059Z,1000.51
2016-05-22T06:38:13.077Z,1000.49
2016-05-22T06:39:13.079Z,1000.53
2016-05-22T06:40:13.082Z,1000.47
2016-05-22T06:41:13.085Z,1000.47
2016-05-22T06:42:13.104Z,1000.43
2016-05-22T06:43:13.107Z,1000.44
2016-05-22T06:44:13.110Z,1000.47
2016-05-22T06:45:13.127Z,1000.49
2016-05-22T06:46:13.129Z,1000.44
2016-05-22T06:47:13.133Z,1000.4
2016-05-22T06:48:13.151Z,1000.42
2016-05-22T06:49:13.154Z,1000.39
2016-05-22T06:50:13.157Z,1000.41
2016-05-22T06:51:13.190Z,1000.28
2016-05-22T06:52:13.177Z,1000.32
2016-05-22T06:53:13.195Z,1000.22
2016-05-22T06:54:13.198Z,1000.21
2016-05-22T06:55:13.201Z,1000.25
2016-05-22T06:56:13.220Z,1000.24
2016-05-22T06:57:13.222Z,1000.25
2016-05-22T06:58:13.256Z,1000.28
2016-05-22T06:59:13.243Z,1000.39
2016-05-22T07:00:13.245Z,1000.34
2016-05-22T07:01:13.249Z,1000.29
2016-05-22T07:02:13.267Z,1000.3
2016-05-22T07:03:13.269Z,1000.36
2016-05-22T07:04:13.272Z,1000.35
2016-05-22T07:05:13.291Z,1000.38
2016-05-22T07:06:13.293Z,1000.36
2016-05-22T07:07:13.311Z,1000.37
2016-05-22T07:08:13.314Z,1000.33
2016-05-22T07:09:13.317Z,1000.24
2016-05-22T07:10:13.319Z,1000.32
2016-05-22T07:11:13.338Z,1000.32
2016-05-22T07:12:13.341Z,1000.29
2016-05-22T07:13:13.780Z,1000.34
2016-05-22T07:14:13.362Z,1000.29
2016-05-22T07:15:13.365Z,1000.32
2016-05-22T07:16:13.367Z,1000.27
2016-05-22T07:17:13.385Z,1000.46
2016-05-22T07:18:13.388Z,1000.33
2016-05-22T07:19:13.407Z,1000.44
2016-05-22T07:20:13.409Z,1000.8
2016-05-22T07:21:13.412Z,1000.9
2016-05-22T07:22:13.415Z,1000.4
2016-05-22T07:23:13.433Z,1000.84
2016-05-22T07:24:13.435Z,1000.44
2016-05-22T07:25:13.454Z,1000.65
2016-05-22T07:26:13.457Z,1000.63
2016-05-22T07:27:13.459Z,1000.79
2016-05-22T07:28:13.478Z,1000.84
2016-05-22T07:29:13.480Z,1000.94
2016-05-22T07:30:13.498Z,1000.97
2016-05-22T07:31:13.501Z,1000.78
2016-05-22T07:32:13.504Z,1000.77
2016-05-22T07:33:13.522Z,1000.88
2016-05-22T07:34:13.524Z,1000.83
2016-05-22T07:35:13.543Z,1000.67
2016-05-22T07:36:13.547Z,1000.66
2016-05-22T07:37:13.564Z,1000.58
2016-05-22T07:38:13.567Z,1000.61
2016-05-22T07:39:13.569Z,1000.61
2016-05-22T07:40:13.588Z,1000.64
2016-05-22T07:41:13.590Z,1000.5
2016-05-22T07:42:13.593Z,1000.54
2016-05-22T07:43:13.611Z,1000.48
2016-05-22T07:44:13.614Z,1000.47
2016-05-22T07:45:13.616Z,1000.6
2016-05-22T07:46:13.635Z,1000.49
2016-05-22T07:47:13.637Z,1000.59
2016-05-22T07:48:13.656Z,1000.53
2016-05-22T07:49:13.660Z,1000.63
2016-05-22T07:50:13.662Z,1000.61
2016-05-22T07:51:13.679Z,1000.64
2016-05-22T07:52:13.682Z,1000.62
2016-05-22T07:53:13.701Z,1000.6
2016-05-22T07:54:13.703Z,1000.57
2016-05-22T07:55:13.707Z,1000.53
2016-05-22T07:56:13.709Z,1000.54
2016-05-22T07:57:13.727Z,1000.56
2016-05-22T07:58:13.731Z,1000.62
2016-05-22T07:59:13.733Z,1000.62
2016-05-22T08:00:13.750Z,1000.6
2016-05-22T08:01:13.754Z,1000.67
2016-05-22T08:03:13.775Z,1000.63
2016-05-22T08:04:13.777Z,1000.57
2016-05-22T08:05:13.781Z,1000.58
2016-05-22T08:06:13.798Z,1000.63
2016-05-22T08:07:13.800Z,1000.58
2016-05-22T08:08:13.803Z,1000.62
2016-05-22T08:09:13.822Z,1000.61
2016-05-22T08:10:13.825Z,1000.58
2016-05-22T08:11:13.828Z,1000.6
2016-05-22T08:12:13.846Z,1000.58
2016-05-22T08:13:13.849Z,1000.62
2016-05-22T08:14:13.851Z,1000.62
2016-05-22T08:15:13.869Z,1000.6
2016-05-22T08:16:13.871Z,1000.65
2016-05-22T08:17:13.874Z,1000.66
2016-05-22T08:18:13.893Z,1000.62
2016-05-22T08:19:13.896Z,1000.63
2016-05-22T08:20:13.914Z,1000.62
2016-05-22T08:21:13.917Z,1000.68
2016-05-22T08:22:13.920Z,1000.79
2016-05-22T08:23:13.938Z,1000.82
2016-05-22T08:24:13.940Z,1000.75
2016-05-22T08:25:13.943Z,1000.74
2016-05-22T08:26:13.962Z,1000.74
2016-05-22T08:27:13.979Z,1000.7
2016-05-22T08:28:13.967Z,1000.73
2016-05-22T08:29:13.970Z,1000.64
2016-05-22T08:30:13.988Z,1000.81
2016-05-22T08:31:13.990Z,1000.73
2016-05-22T08:32:13.993Z,1000.71
2016-05-22T08:33:14.011Z,1000.88
2016-05-22T08:34:14.031Z,1000.8
2016-05-22T08:35:14.017Z,1000.83
2016-05-22T08:36:14.036Z,1000.86
2016-05-22T08:37:14.038Z,1000.83
2016-05-22T08:38:14.041Z,1000.91
2016-05-22T08:39:14.058Z,1000.83
2016-05-22T08:40:14.078Z,1000.81
2016-05-22T08:41:14.064Z,1000.86
2016-05-22T08:42:14.083Z,1000.82
2016-05-22T08:43:14.413Z,1000.81
2016-05-22T08:44:14.088Z,1000.86
2016-05-22T08:45:14.122Z,1000.85
2016-05-22T08:46:14.110Z,1000.83
2016-05-22T08:47:14.112Z,1000.82
2016-05-22T08:48:14.130Z,1000.84
2016-05-22T08:49:14.132Z,1000.9
2016-05-22T08:50:14.135Z,1000.87
2016-05-22T08:51:14.154Z,1000.82
2016-05-22T08:52:14.156Z,1000.85
2016-05-22T08:53:14.159Z,1000.81
2016-05-22T08:54:14.162Z,1000.89
2016-05-22T08:55:14.180Z,1000.78
2016-05-22T08:56:14.182Z,1000.77
2016-05-22T08:57:14.185Z,1000.75
2016-05-22T08:58:14.204Z,1000.77
2016-05-22T08:59:14.206Z,1000.75
2016-05-22T09:00:14.209Z,1000.85
2016-05-22T09:01:14.211Z,1000.98
2016-05-22T09:03:14.233Z,1000.97
2016-05-22T09:04:14.236Z,1000.85
2016-05-22T09:05:14.253Z,1000.83
2016-05-22T09:06:14.256Z,1000.82
2016-05-22T09:07:14.259Z,1000.86
2016-05-22T09:08:14.278Z,1000.86
2016-05-22T09:09:14.296Z,1000.99
2016-05-22T09:10:14.283Z,1000.99
2016-05-22T09:11:14.302Z,1000.93
2016-05-22T09:12:14.304Z,1000.9
2016-05-22T09:13:14.307Z,1001.04
2016-05-22T09:14:14.310Z,1000.92
2016-05-22T09:15:14.328Z,1000.96
2016-05-22T09:16:14.330Z,1001.11
2016-05-22T09:17:14.348Z,1001.05
2016-05-22T09:18:14.351Z,1001
2016-05-22T09:19:14.385Z,1000.99
2016-05-22T09:20:14.372Z,1000.94
2016-05-22T09:21:14.374Z,1001.05
2016-05-22T09:22:14.377Z,1001.13
2016-05-22T09:23:14.396Z,1001.03
2016-05-22T09:24:14.399Z,1001.1
2016-05-22T09:25:14.401Z,1001.05
2016-05-22T09:26:14.404Z,1001.09
2016-05-22T09:27:14.423Z,1001.08
2016-05-22T09:28:14.425Z,1001.08
2016-05-22T09:29:14.428Z,1001.08
2016-05-22T09:30:14.446Z,1001.12
2016-05-22T09:31:14.449Z,1001.08
2016-05-22T09:33:14.470Z,1001.1
2016-05-22T09:34:14.472Z,1001.12
2016-05-22T09:35:14.475Z,1001.28
2016-05-22T09:36:14.494Z,1001.3
2016-05-22T09:37:14.496Z,1001.32
2016-05-22T09:38:14.499Z,1001.34
2016-05-22T09:39:14.517Z,1001.21
2016-05-22T09:40:14.520Z,1001.12
2016-05-22T09:41:14.522Z,1001.11
2016-05-22T09:42:14.525Z,1001.19
2016-05-22T09:43:14.684Z,1001.3
2016-05-22T09:44:14.561Z,1001.39
2016-05-22T09:45:14.564Z,1001.44
2016-05-22T09:46:14.567Z,1001.34
2016-05-22T09:47:14.570Z,1001.32
2016-05-22T09:48:14.588Z,1001.39
2016-05-22T09:49:14.591Z,1001.33
2016-05-22T09:50:14.594Z,1001.42
2016-05-22T09:51:14.596Z,1001.4
2016-05-22T09:52:14.615Z,1001.39
2016-05-22T09:53:14.618Z,1001.44
2016-05-22T09:54:14.621Z,1001.49
2016-05-22T09:55:14.638Z,1001.63
2016-05-22T09:56:14.641Z,1001.57
2016-05-22T09:57:14.643Z,1001.52
2016-05-22T09:58:14.662Z,1001.55
2016-05-22T09:59:14.665Z,1001.6
2016-05-22T10:00:14.683Z,1001.62
2016-05-22T10:01:14.686Z,1001.52
2016-05-22T10:02:14.689Z,1001.64
2016-05-22T10:03:14.691Z,1001.6
2016-05-22T10:04:14.709Z,1001.55
2016-05-22T10:05:14.712Z,1001.48
2016-05-22T10:06:14.715Z,1001.59
2016-05-22T10:07:14.734Z,1001.53
2016-05-22T10:08:14.736Z,1001.55
2016-05-22T10:09:14.739Z,1001.53
2016-05-22T10:10:14.756Z,1001.49
2016-05-22T10:11:14.759Z,1001.69
2016-05-22T10:12:14.762Z,1001.62
2016-05-22T10:13:15.249Z,1001.67
2016-05-22T10:14:14.783Z,1001.67
2016-05-22T10:15:14.802Z,1001.73
2016-05-22T10:16:14.788Z,1001.81
2016-05-22T10:17:14.808Z,1001.74
2016-05-22T10:18:14.809Z,1001.72
2016-05-22T10:19:14.813Z,1001.68
2016-05-22T10:20:14.830Z,1001.71
2016-05-22T10:21:14.833Z,1001.7
2016-05-22T10:22:14.836Z,1001.86
2016-05-22T10:23:14.854Z,1001.83
2016-05-22T10:24:14.857Z,1001.76
2016-05-22T10:25:14.860Z,1001.63
2016-05-22T10:26:14.878Z,1001.68
2016-05-22T10:27:14.881Z,1001.68
2016-05-22T10:28:15.493Z,1001.64
2016-05-22T10:29:14.901Z,1001.64
2016-05-22T10:30:14.904Z,1001.7
2016-05-22T10:31:14.906Z,1001.77
2016-05-22T10:32:14.926Z,1001.77
2016-05-22T10:33:14.929Z,1001.74
2016-05-22T10:34:14.931Z,1001.81
2016-05-22T10:35:14.934Z,1001.83
2016-05-22T10:36:14.952Z,1001.92
2016-05-22T10:37:14.954Z,1001.89
2016-05-22T10:38:14.957Z,1001.9
2016-05-22T10:39:14.975Z,1001.88
2016-05-22T10:40:14.978Z,1001.88
2016-05-22T10:41:14.997Z,1001.91
2016-05-22T10:42:15.000Z,1001.91
2016-05-22T10:43:15.002Z,1001.96
2016-05-22T10:44:15.020Z,1001.96
2016-05-22T10:45:15.022Z,1001.93
2016-05-22T10:46:15.026Z,1002
2016-05-22T10:47:15.027Z,1002
2016-05-22T10:48:15.046Z,1001.95
2016-05-22T10:49:15.049Z,1001.99
2016-05-22T10:50:15.068Z,1002
2016-05-22T10:51:15.071Z,1001.96
2016-05-22T10:52:15.073Z,1001.99
2016-05-22T10:53:15.076Z,1002.08
2016-05-22T10:54:15.094Z,1002.04
2016-05-22T10:55:15.097Z,1002.07
2016-05-22T10:56:15.100Z,1002.02
2016-05-22T10:57:15.117Z,1001.99
2016-05-22T10:58:15.120Z,1001.99
2016-05-22T10:59:15.123Z,1001.99
2016-05-22T11:00:15.141Z,1001.93
2016-05-22T11:01:15.144Z,1001.97
2016-05-22T11:03:15.165Z,1002
2016-05-22T11:04:15.168Z,1002.03
2016-05-22T11:05:15.171Z,1001.94
2016-05-22T11:06:15.189Z,1001.93
2016-05-22T11:07:15.191Z,1001.99
2016-05-22T11:08:15.194Z,1002.06
2016-05-22T11:09:15.212Z,1001.96
2016-05-22T11:10:15.214Z,1001.94
2016-05-22T11:11:15.218Z,1001.98
2016-05-22T11:12:15.236Z,1001.97
2016-05-22T11:13:15.583Z,1002.03
2016-05-22T11:14:15.241Z,1001.99
2016-05-22T11:15:15.244Z,1001.97
2016-05-22T11:16:15.263Z,1002
2016-05-22T11:17:15.266Z,1001.97
2016-05-22T11:18:15.268Z,1001.98
2016-05-22T11:19:15.271Z,1001.98
2016-05-22T11:20:15.288Z,1001.96
2016-05-22T11:21:15.291Z,1001.96
2016-05-22T11:22:15.294Z,1001.94
2016-05-22T11:23:15.328Z,1001.91
2016-05-22T11:24:15.316Z,1001.93
2016-05-22T11:25:15.333Z,1001.91
2016-05-22T11:26:15.336Z,1001.88
2016-05-22T11:27:15.339Z,1001.91
2016-05-22T11:28:15.341Z,1001.96
2016-05-22T11:29:15.360Z,1001.97
2016-05-22T11:30:15.362Z,1001.97
2016-05-22T11:31:15.365Z,1001.93
2016-05-22T11:33:15.387Z,1001.89
2016-05-22T11:34:15.390Z,1001.86
2016-05-22T11:35:15.407Z,1001.88
2016-05-22T11:36:15.410Z,1001.84
2016-05-22T11:37:15.413Z,1001.9
2016-05-22T11:38:15.415Z,1001.92
2016-05-22T11:39:15.434Z,1001.9
2016-05-22T11:40:15.436Z,1001.86
2016-05-22T11:41:15.439Z,1001.86
2016-05-22T11:42:15.442Z,1001.86
2016-05-22T11:43:15.461Z,1001.86
2016-05-22T11:44:15.463Z,1001.84
2016-05-22T11:45:15.481Z,1001.88
2016-05-22T11:46:15.484Z,1001.84
2016-05-22T11:47:15.487Z,1001.88
2016-05-22T11:48:15.489Z,1001.88
2016-05-22T11:49:15.491Z,1001.88
2016-05-22T11:50:15.511Z,1001.91
2016-05-22T11:51:15.513Z,1001.92
2016-05-22T11:52:15.516Z,1001.96
2016-05-22T11:53:15.534Z,1001.89
2016-05-22T11:54:15.536Z,1001.9
2016-05-22T11:55:15.539Z,1001.89
2016-05-22T11:56:15.558Z,1001.82
2016-05-22T11:57:15.560Z,1001.86
2016-05-22T11:58:15.563Z,1001.84
2016-05-22T11:59:15.581Z,1001.86
2016-05-22T12:00:15.584Z,1001.83
2016-05-22T12:01:15.587Z,1001.84
2016-05-22T12:02:15.590Z,1001.84
2016-05-22T12:03:15.608Z,1001.81
2016-05-22T12:04:15.610Z,1001.84
2016-05-22T12:05:15.613Z,1001.82
2016-05-22T12:06:15.631Z,1001.77
2016-05-22T12:07:15.634Z,1001.79
2016-05-22T12:08:15.637Z,1001.82
2016-05-22T12:09:15.655Z,1001.82
2016-05-22T12:10:15.658Z,1001.81
2016-05-22T12:11:15.661Z,1001.82
2016-05-22T12:12:15.664Z,1001.82
2016-05-22T12:13:16.010Z,1001.82
2016-05-22T12:14:15.683Z,1001.84
2016-05-22T12:15:15.687Z,1001.91